Time;durP1;ratioP1;P1;durP2;ratioP2;P2;SDS_P1;SDS_P2;PMS_P1;PMS_P2;Temp;Humidity;BMP_temperature;BMP_pressure;BME280_temperature;BME280_humidity;BME280_pressure;Samples;Min_cycle;Max_cycle;Signal;HPM_P1;HPM_P2
2022/11/04 00:00:51;;;;;;;3.03;1.10;;;;;;;11.78;71.75;98871.63;1088127;54;20014;-79
2022/11/04 00:01:56;;;;;;;2.70;1.02;;;;;;;11.88;71.75;98861.50;1087945;54;20094;-79
2022/11/04 00:02:58;;;;;;;3.35;1.10;;;;;;;11.84;71.20;98855.69;1097440;39;20540;-78
2022/11/04 00:04:02;;;;;;;2.80;1.00;;;;;;;11.82;71.55;98854.16;1088297;54;20022;-79
2022/11/04 00:05:07;;;;;;;2.97;1.00;;;;;;;11.93;71.00;98853.72;1089737;46;20031;-81
2022/11/04 00:06:09;;;;;;;2.08;0.80;;;;;;;11.86;71.41;98850.94;1090154;46;20034;-78
2022/11/04 00:08:29;;;;;;;2.35;0.90;;;;;;;11.90;71.13;98848.75;1088291;54;20022;-79
2022/11/04 00:09:33;;;;;;;2.83;1.17;;;;;;;11.96;71.23;98842.66;1088330;54;20030;-79
2022/11/04 00:14:20;;;;;;;3.17;0.98;;;;;;;12.03;71.12;98861.56;1087817;54;20030;-79
2022/11/04 00:17:59;;;;;;;3.47;1.20;;;;;;;11.96;70.81;98858.72;1087882;54;20049;-81
2022/11/04 00:19:01;;;;;;;2.40;0.90;;;;;;;12.00;70.87;98853.88;1087941;54;20031;-81
2022/11/04 00:29:04;;;;;;;2.45;0.80;;;;;;;11.87;71.46;98870.53;1087574;54;20090;-78
2022/11/04 00:30:09;;;;;;;2.88;1.00;;;;;;;11.86;71.19;98876.91;1090989;31;20685;-78
2022/11/04 00:33:47;;;;;;;3.13;1.02;;;;;;;11.88;71.49;98884.75;1087613;54;20014;-79
2022/11/04 00:34:50;;;;;;;3.03;1.10;;;;;;;11.83;71.60;98882.63;1087547;54;20040;-76
2022/11/04 00:35:55;;;;;;;1.90;0.77;;;;;;;11.82;71.62;98883.63;1087358;54;20038;-79
2022/11/04 00:36:58;;;;;;;3.70;1.27;;;;;;;11.93;71.04;98885.88;1087533;54;20030;-81
2022/11/04 00:38:02;;;;;;;2.60;0.95;;;;;;;11.82;71.57;98883.63;1087267;54;20026;-80
2022/11/04 00:39:07;;;;;;;3.30;1.15;;;;;;;11.94;71.18;98892.06;1088740;47;20098;-76
2022/11/04 00:40:10;;;;;;;3.63;1.00;;;;;;;11.82;71.17;98888.97;1087701;54;20527;-78
2022/11/04 00:41:29;;;;;;;2.58;0.93;;;;;;;11.80;71.63;98885.69;1088505;46;20088;-78
2022/11/04 00:42:31;;;;;;;2.33;0.90;;;;;;;11.81;71.77;98895.34;1087544;54;20725;-79
2022/11/04 00:43:35;;;;;;;2.83;1.25;;;;;;;11.77;71.47;98894.06;1087708;54;20014;-79
2022/11/04 00:44:36;;;;;;;3.08;1.20;;;;;;;11.84;71.51;98893.16;1087626;54;20620;-78
2022/11/04 00:45:44;;;;;;;3.95;0.90;;;;;;;11.88;71.08;98896.31;1087783;54;20031;-77
2022/11/04 00:46:46;;;;;;;2.92;0.93;;;;;;;12.00;70.84;98897.53;1087867;54;20038;-78
2022/11/04 00:47:52;;;;;;;3.00;1.00;;;;;;;11.90;70.69;98896.13;1091024;39;20263;-77
2022/11/04 00:48:54;;;;;;;3.17;0.93;;;;;;;11.88;71.04;98899.00;1087711;54;20050;-80
2022/11/04 00:49:58;;;;;;;3.95;1.13;;;;;;;11.92;71.26;98902.94;1087724;54;20035;-78
2022/11/04 00:50:59;;;;;;;2.28;0.90;;;;;;;11.88;71.26;98904.34;1087752;54;20082;-79
2022/11/04 00:52:03;;;;;;;2.40;0.90;;;;;;;11.90;70.98;98905.00;1087643;54;20019;-79
2022/11/04 00:53:05;;;;;;;2.58;0.90;;;;;;;12.00;71.05;98904.75;1087719;54;20053;-79
2022/11/04 00:54:09;;;;;;;2.58;0.90;;;;;;;11.87;71.13;98902.69;1087591;54;20034;-77
2022/11/04 00:55:10;;;;;;;4.00;1.20;;;;;;;11.83;71.28;98906.72;1087340;54;20038;-80
2022/11/04 00:56:15;;;;;;;2.50;0.88;;;;;;;11.84;71.04;98897.66;1087451;54;20763;-79
2022/11/04 00:57:17;;;;;;;4.28;0.80;;;;;;;11.85;71.31;98893.97;1087806;54;20018;-79
2022/11/04 00:58:22;;;;;;;2.35;0.88;;;;;;;11.92;71.13;98894.09;1087855;54;20034;-82
2022/11/04 00:59:23;;;;;;;3.53;0.98;;;;;;;11.89;71.29;98897.97;1087904;54;20042;-81
2022/11/04 01:00:28;;;;;;;2.72;1.05;;;;;;;12.02;71.07;98897.38;1087868;54;20094;-78
2022/11/04 01:01:32;;;;;;;2.35;0.95;;;;;;;12.01;71.24;98893.84;1087759;54;20023;-79
2022/11/04 01:02:36;;;;;;;3.00;1.02;;;;;;;12.14;70.88;98900.44;1087480;46;20030;-79
2022/11/04 01:03:38;;;;;;;2.88;1.13;;;;;;;12.14;70.71;98890.53;1087376;54;20046;-81
2022/11/04 01:04:42;;;;;;;2.83;1.10;;;;;;;12.07;71.18;98892.28;1087757;54;20057;-81
2022/11/04 01:05:43;;;;;;;1.90;0.73;;;;;;;12.19;70.81;98884.63;1087540;54;20030;-80
2022/11/04 01:06:48;;;;;;;3.13;1.00;;;;;;;12.04;71.20;98889.16;1090491;39;20701;-80
2022/11/04 01:07:50;;;;;;;2.15;0.80;;;;;;;12.01;71.21;98888.50;1087785;54;20069;-81
2022/11/04 01:08:57;;;;;;;2.90;1.00;;;;;;;11.92;71.63;98894.09;1087814;54;20015;-81
2022/11/04 01:09:59;;;;;;;2.65;1.00;;;;;;;11.85;71.38;98894.81;1087856;54;20031;-76
2022/11/04 01:11:03;;;;;;;3.00;0.90;;;;;;;11.88;71.45;98887.44;1087823;54;20026;-75
2022/11/04 01:12:05;;;;;;;3.10;0.82;;;;;;;11.81;71.68;98898.03;1087867;54;20733;-79
2022/11/04 01:13:09;;;;;;;2.35;0.93;;;;;;;11.93;71.71;98896.59;1087821;54;20738;-76
2022/11/04 01:14:11;;;;;;;2.60;0.93;;;;;;;11.82;71.70;98891.66;1087113;54;20848;-79
2022/11/04 01:15:15;;;;;;;2.83;1.13;;;;;;;11.99;71.54;98903.94;1087824;54;20045;-80
2022/11/04 01:16:17;;;;;;;3.50;1.00;;;;;;;11.88;71.49;98903.50;1089369;31;20733;-81
2022/11/04 01:17:24;;;;;;;3.75;1.00;;;;;;;11.96;71.41;98901.59;1087847;54;20031;-78
2022/11/04 01:18:26;;;;;;;2.67;1.02;;;;;;;11.82;71.67;98907.72;1087844;54;20023;-80
2022/11/04 01:19:30;;;;;;;2.92;1.02;;;;;;;11.86;71.60;98907.19;1088129;47;20018;-78
2022/11/04 01:20:32;;;;;;;2.78;1.00;;;;;;;11.87;70.97;98908.03;1089385;46;20026;-77
2022/11/04 01:21:36;;;;;;;2.67;1.10;;;;;;;11.81;70.96;98903.38;1087867;54;21077;-79
2022/11/04 01:22:38;;;;;;;2.70;1.10;;;;;;;11.90;71.02;98907.69;1087943;54;20057;-80
2022/11/04 01:23:45;;;;;;;1.98;0.68;;;;;;;11.79;70.97;98908.91;1088179;46;20034;-81
2022/11/04 01:24:47;;;;;;;2.42;0.90;;;;;;;11.80;71.05;98913.28;1087821;54;20061;-77
2022/11/04 01:25:51;;;;;;;3.90;1.00;;;;;;;11.86;70.79;98912.53;1087722;54;20034;-79
2022/11/04 01:26:52;;;;;;;4.15;1.08;;;;;;;11.91;70.73;98912.00;1087868;54;20053;-80
2022/11/04 01:27:57;;;;;;;3.75;1.30;;;;;;;11.86;70.26;98912.53;1087938;54;20042;-80
2022/11/04 01:28:59;;;;;;;3.03;0.90;;;;;;;11.90;70.36;98912.19;1087709;54;20073;-79
2022/11/04 01:30:03;;;;;;;2.22;0.80;;;;;;;11.94;70.06;98914.31;1087768;54;20077;-79
2022/11/04 01:31:07;;;;;;;3.80;1.00;;;;;;;11.81;70.02;98908.72;1087845;54;20041;-79
2022/11/04 01:32:13;;;;;;;4.53;0.90;;;;;;;11.69;70.07;98903.84;1088302;46;20760;-80
2022/11/04 01:33:17;;;;;;;2.70;1.05;;;;;;;11.90;69.69;98907.69;1087896;54;20049;-79
2022/11/04 01:34:21;;;;;;;3.63;0.80;;;;;;;11.83;69.71;98904.88;1087808;54;20030;-79
2022/11/04 01:35:23;;;;;;;3.08;1.02;;;;;;;11.96;69.40;98904.25;1087843;54;20971;-81
2022/11/04 01:36:29;;;;;;;3.85;1.08;;;;;;;11.80;69.61;98899.88;1087860;54;20026;-79
2022/11/04 01:37:30;;;;;;;2.58;0.80;;;;;;;11.86;69.38;98909.84;1088560;47;20754;-80
2022/11/04 01:38:35;;;;;;;3.75;1.00;;;;;;;12.06;69.13;98912.06;1089494;46;20026;-79
2022/11/04 01:39:39;;;;;;;2.72;1.00;;;;;;;11.85;69.68;98910.06;1087912;46;20236;-79
2022/11/04 01:40:41;;;;;;;3.22;1.20;;;;;;;11.81;69.54;98914.94;1087815;54;20045;-79
2022/11/04 01:41:45;;;;;;;3.50;1.05;;;;;;;11.83;69.60;98906.72;1087759;54;20057;-79
2022/11/04 01:42:47;;;;;;;2.53;1.00;;;;;;;11.78;70.09;98907.25;1088330;47;20057;-77
2022/11/04 01:43:53;;;;;;;3.33;1.20;;;;;;;11.77;70.20;98910.94;1087861;47;20026;-78
2022/11/04 01:44:56;;;;;;;3.05;1.08;;;;;;;11.81;70.13;98903.38;1087658;54;20055;-80
2022/11/04 01:46:02;;;;;;;2.65;1.08;;;;;;;11.98;69.61;98907.63;1087812;54;20164;-79
2022/11/04 01:47:04;;;;;;;2.50;0.90;;;;;;;11.80;69.71;98913.28;1088660;39;20655;-79
2022/11/04 01:48:16;;;;;;;4.05;1.02;;;;;;;11.80;70.08;98913.28;1087791;54;20061;-81
2022/11/04 01:49:26;;;;;;;3.92;1.20;;;;;;;11.71;69.96;98919.72;1087715;54;20035;-78
2022/11/04 01:50:33;;;;;;;5.68;1.17;;;;;;;11.78;70.03;98912.63;1087775;54;20034;-77
2022/11/04 01:51:37;;;;;;;3.47;1.00;;;;;;;11.79;70.15;98918.81;1087764;54;20065;-79
2022/11/04 01:52:47;;;;;;;2.92;1.05;;;;;;;11.71;69.96;98914.34;1087759;54;20030;-79
2022/11/04 01:53:51;;;;;;;3.03;0.77;;;;;;;11.68;70.20;98902.16;1087811;54;20034;-81
2022/11/04 01:54:59;;;;;;;4.13;1.00;;;;;;;11.70;70.45;98916.22;1089252;31;20650;-78
2022/11/04 01:56:10;;;;;;;3.70;0.80;;;;;;;11.66;70.35;98914.88;1087753;54;20038;-79
2022/11/04 01:57:19;;;;;;;4.30;1.17;;;;;;;11.66;70.59;98916.75;1087712;54;20022;-77
2022/11/04 01:58:24;;;;;;;4.97;1.52;;;;;;;11.64;70.52;98914.22;1087838;54;20065;-79
2022/11/04 01:59:33;;;;;;;3.22;0.93;;;;;;;11.67;70.62;98919.22;1087737;54;20049;-79
2022/11/04 02:00:36;;;;;;;3.15;0.98;;;;;;;11.82;70.09;98915.75;1087716;54;20038;-79
2022/11/04 02:01:41;;;;;;;3.33;1.05;;;;;;;11.76;70.20;98921.84;1087706;54;20030;-78
2022/11/04 02:02:58;;;;;;;3.17;1.13;;;;;;;11.68;70.12;98912.88;1088477;31;20682;-79
2022/11/04 02:04:24;;;;;;;2.65;1.17;;;;;;;11.55;70.41;98913.47;1088986;47;20686;-78
2022/11/04 02:05:27;;;;;;;2.25;0.90;;;;;;;11.52;70.80;98910.34;1087911;47;20030;-78
2022/11/04 02:06:31;;;;;;;3.42;1.20;;;;;;;11.58;70.47;98917.63;1087774;54;20062;-81
2022/11/04 02:07:33;;;;;;;4.07;1.00;;;;;;;11.60;70.01;98904.91;1087655;54;20069;-80
2022/11/04 02:08:39;;;;;;;2.90;0.90;;;;;;;11.58;70.53;98903.41;1087621;54;20030;-80
2022/11/04 02:09:42;;;;;;;2.70;1.00;;;;;;;11.54;70.42;98910.97;1087764;54;20035;-79
2022/11/04 02:10:51;;;;;;;3.30;1.38;;;;;;;11.51;70.86;98908.66;1087773;54;20015;-79
2022/11/04 02:13:11;;;;;;;5.22;1.60;;;;;;;11.46;70.79;98916.38;1087403;54;20027;-81
2022/11/04 02:14:13;;;;;;;2.75;0.90;;;;;;;11.49;70.68;98910.69;1087266;54;20041;-77
2022/11/04 02:15:17;;;;;;;2.92;0.98;;;;;;;11.48;70.98;98930.41;1087492;54;20039;-79
2022/11/04 02:16:25;;;;;;;4.03;1.10;;;;;;;11.48;70.58;98925.06;1087550;54;20035;-80
2022/11/04 02:17:43;;;;;;;3.72;1.10;;;;;;;11.45;70.81;98930.75;1087824;47;20058;-79
2022/11/04 02:18:57;;;;;;;3.22;1.35;;;;;;;11.42;70.50;98925.78;1089375;39;21157;-79
2022/11/04 02:20:13;;;;;;;4.07;1.30;;;;;;;11.55;70.36;98920.66;1087401;54;20086;-79
2022/11/04 02:21:56;;;;;;;3.15;1.20;;;;;;;11.55;70.58;98918.84;1087451;54;20094;-81
2022/11/04 02:23:22;;;;;;;3.05;1.00;;;;;;;11.63;70.18;98917.09;1087267;54;20038;-76
2022/11/04 02:24:48;;;;;;;3.42;1.00;;;;;;;11.64;70.04;98919.59;1087338;54;20045;-78
2022/11/04 02:26:20;;;;;;;4.85;1.90;;;;;;;11.58;70.22;98920.31;1087394;54;20042;-80
2022/11/04 02:27:39;;;;;;;3.00;1.00;;;;;;;11.46;70.36;98922.56;1088194;39;20397;-80
2022/11/04 02:29:13;;;;;;;4.97;1.40;;;;;;;11.45;70.36;98909.34;1087307;54;20030;-78
2022/11/04 02:30:20;;;;;;;4.57;1.50;;;;;;;11.44;70.52;98908.53;1088848;39;20628;-79
2022/11/04 02:31:31;;;;;;;3.30;0.95;;;;;;;11.44;70.42;98896.97;1087395;54;20022;-79
2022/11/04 02:32:54;;;;;;;5.20;1.05;;;;;;;11.50;69.92;98899.78;1089044;39;20545;-79
2022/11/04 02:34:04;;;;;;;3.03;1.10;;;;;;;11.56;69.57;98900.91;1087382;31;20750;-78
2022/11/04 02:35:17;;;;;;;3.40;0.90;;;;;;;11.46;70.13;98905.66;1087585;47;20034;-80
2022/11/04 02:36:28;;;;;;;4.00;1.20;;;;;;;11.54;70.17;98910.97;1087471;54;20062;-81
2022/11/04 02:38:53;;;;;;;13.40;1.40;;;;;;;11.45;69.94;98918.22;1087583;54;20027;-80
2022/11/04 02:40:06;;;;;;;5.38;1.33;;;;;;;11.33;70.14;98922.31;1087784;54;20031;-78
2022/11/04 02:41:18;;;;;;;5.40;1.13;;;;;;;11.54;69.83;98910.97;1087751;54;20034;-79
2022/11/04 02:42:27;;;;;;;2.25;0.82;;;;;;;11.46;69.77;98908.34;1087616;54;20069;-79
2022/11/04 02:43:38;;;;;;;5.85;1.83;;;;;;;11.44;70.40;98915.72;1087692;54;20113;-79
2022/11/04 02:44:44;;;;;;;4.72;1.23;;;;;;;11.34;70.47;98914.09;1088114;39;20507;-79
2022/11/04 02:45:57;;;;;;;5.97;1.10;;;;;;;11.45;70.22;98925.41;1087718;54;20034;-79
2022/11/04 02:47:04;;;;;;;4.90;1.23;;;;;;;11.34;70.41;98924.81;1087616;54;20078;-78
2022/11/04 02:48:13;;;;;;;3.33;0.80;;;;;;;11.34;70.67;98927.47;1087663;54;20062;-79
2022/11/04 02:49:19;;;;;;;5.05;1.13;;;;;;;11.43;70.22;98930.94;1087699;54;20014;-78
2022/11/04 02:50:33;;;;;;;3.78;1.10;;;;;;;11.28;70.65;98930.88;1091230;39;20743;-78
2022/11/04 02:51:41;;;;;;;4.40;1.25;;;;;;;11.31;70.76;98927.84;1087701;54;20030;-77
2022/11/04 02:52:51;;;;;;;4.10;1.20;;;;;;;11.36;70.43;98936.16;1087691;54;20053;-78
2022/11/04 02:53:59;;;;;;;;;;;;;;;11.25;70.32;98936.56;1087869;54;20073;-78
2022/11/04 02:55:08;;;;;;;3.80;1.17;;;;;;;11.24;70.65;98930.41;1087759;54;19939;-78
2022/11/04 02:57:22;;;;;;;4.63;1.50;;;;;;;11.38;70.35;98928.81;1087549;54;20033;-80
2022/11/04 02:58:29;;;;;;;4.75;1.60;;;;;;;11.27;70.29;98928.38;1087662;54;20042;-80
2022/11/04 02:59:38;;;;;;;4.15;1.00;;;;;;;11.29;70.42;98924.53;1087691;54;20026;-80
2022/11/04 03:00:43;;;;;;;3.33;1.02;;;;;;;11.34;70.08;98927.47;1087757;54;20058;-80
2022/11/04 03:01:51;;;;;;;2.80;1.00;;;;;;;11.33;70.29;98925.84;1087939;54;20094;-80
2022/11/04 03:02:56;;;;;;;4.72;1.08;;;;;;;11.33;70.19;98923.16;1087982;54;20058;-80
2022/11/04 03:04:07;;;;;;;5.80;0.90;;;;;;;11.33;70.47;98927.66;1088096;46;20035;-79
2022/11/04 03:05:10;;;;;;;;;;;;;;;11.32;70.39;98920.66;1088196;54;20035;-81
2022/11/04 03:06:19;;;;;;;2.70;0.80;;;;;;;11.35;70.36;98923.81;1088016;54;19961;-79
2022/11/04 03:07:25;;;;;;;3.70;1.10;;;;;;;11.48;69.99;98925.88;1087984;54;20053;-81
2022/11/04 03:08:34;;;;;;;3.65;1.10;;;;;;;11.54;69.81;98943.06;1090036;46;20081;-82
2022/11/04 03:09:40;;;;;;;3.22;1.00;;;;;;;11.38;70.15;98938.69;1088036;54;20053;-81
2022/11/04 03:10:47;;;;;;;2.53;0.80;;;;;;;11.57;69.87;98940.06;1088076;54;20026;-81
2022/11/04 03:11:53;;;;;;;3.30;0.93;;;;;;;11.68;69.48;98944.16;1088102;54;20058;-81
2022/11/04 03:13:01;;;;;;;2.70;1.00;;;;;;;11.58;69.58;98952.44;1087950;54;20041;-80
2022/11/04 03:14:07;;;;;;;3.00;1.20;;;;;;;11.66;69.41;98955.03;1088055;54;20046;-79
2022/11/04 03:15:19;;;;;;;3.92;1.27;;;;;;;11.65;69.63;98957.91;1091582;46;20042;-79
2022/11/04 03:16:25;;;;;;;3.60;1.00;;;;;;;11.65;69.35;98950.69;1088002;54;20061;-79
2022/11/04 03:17:38;;;;;;;3.13;1.30;;;;;;;11.53;69.67;98961.00;1088028;54;20037;-79
2022/11/04 03:18:49;;;;;;;5.20;1.50;;;;;;;11.32;70.15;98960.78;1088132;54;20019;-79
2022/11/04 03:19:58;;;;;;;4.30;1.15;;;;;;;11.22;69.93;98964.50;1090847;46;20034;-79
2022/11/04 03:21:02;;;;;;;6.63;1.20;;;;;;;11.23;70.16;98965.38;1088011;54;20035;-79
2022/11/04 03:22:11;;;;;;;3.53;1.08;;;;;;;11.39;70.00;98959.06;1088028;54;20035;-81
2022/11/04 03:23:14;;;;;;;3.25;0.82;;;;;;;11.51;69.88;98967.53;1087977;54;20820;-78
2022/11/04 03:24:18;;;;;;;3.25;1.17;;;;;;;11.54;69.52;98965.34;1088097;54;20034;-78
2022/11/04 03:25:23;;;;;;;3.78;1.13;;;;;;;11.45;69.77;98961.06;1088034;54;20038;-78
2022/11/04 03:26:31;;;;;;;3.33;1.08;;;;;;;11.30;70.27;98958.28;1088012;54;20010;-79
2022/11/04 03:27:44;;;;;;;3.13;0.90;;;;;;;11.27;70.11;98964.00;1087973;54;20035;-81
2022/11/04 03:28:55;;;;;;;4.65;1.45;;;;;;;11.24;70.32;98959.00;1088061;54;20037;-80
2022/11/04 03:30:00;;;;;;;4.85;1.33;;;;;;;11.24;70.15;98953.66;1088099;54;20674;-80
2022/11/04 03:31:07;;;;;;;4.15;1.08;;;;;;;11.44;69.86;98951.34;1088078;54;20773;-79
2022/11/04 03:32:16;;;;;;;3.38;0.90;;;;;;;11.42;69.72;98948.00;1087845;54;20138;-79
2022/11/04 03:33:30;;;;;;;4.40;0.88;;;;;;;11.20;69.81;98950.47;1088951;39;20687;-80
2022/11/04 03:34:32;;;;;;;3.33;1.00;;;;;;;11.26;69.98;98950.78;1088062;54;20053;-80
2022/11/04 03:35:36;;;;;;;4.30;1.20;;;;;;;11.46;69.55;98959.19;1088079;54;20034;-79
2022/11/04 03:36:37;;;;;;;3.85;0.90;;;;;;;11.40;69.60;98958.06;1088085;54;20038;-79
2022/11/04 03:37:42;;;;;;;3.58;0.95;;;;;;;11.46;69.33;98965.41;1087974;54;20026;-79
2022/11/04 03:38:44;;;;;;;2.92;0.93;;;;;;;11.49;69.57;98953.50;1095168;39;20680;-80
2022/11/04 03:39:48;;;;;;;8.05;1.30;;;;;;;11.48;69.54;98960.69;1088038;54;20041;-79
2022/11/04 03:40:50;;;;;;;3.55;1.10;;;;;;;11.27;70.20;98963.16;1088031;54;20042;-79
2022/11/04 03:41:57;;;;;;;6.90;1.33;;;;;;;11.38;70.10;98973.47;1088043;54;20041;-79
2022/11/04 03:43:03;;;;;;;3.58;1.00;;;;;;;11.50;69.35;98973.91;1087961;54;20127;-80
2022/11/04 03:44:08;;;;;;;3.03;0.90;;;;;;;11.52;69.35;98979.91;1088452;39;20964;-81
2022/11/04 03:45:11;;;;;;;2.58;0.82;;;;;;;11.53;69.37;98978.88;1088045;54;20053;-79
2022/11/04 03:46:15;;;;;;;7.90;1.60;;;;;;;11.36;69.68;98984.34;1088864;39;21138;-80
2022/11/04 03:47:20;;;;;;;4.13;1.30;;;;;;;11.14;70.44;98990.50;1088323;46;20038;-81
2022/11/04 03:48:27;;;;;;;3.50;1.00;;;;;;;11.37;69.88;98983.34;1091457;39;20644;-79
2022/11/04 03:49:29;;;;;;;4.57;1.05;;;;;;;11.32;70.11;98991.06;1088030;54;20034;-79
2022/11/04 03:50:35;;;;;;;4.03;0.90;;;;;;;11.47;69.62;98988.47;1088082;54;20030;-78
2022/11/04 03:51:37;;;;;;;6.15;1.70;;;;;;;11.25;70.18;98995.44;1089278;46;20041;-79
2022/11/04 03:52:41;;;;;;;5.18;1.10;;;;;;;11.19;70.47;98996.13;1087968;54;20027;-79
2022/11/04 03:53:43;;;;;;;4.03;1.02;;;;;;;11.15;70.58;98992.13;1087955;54;20045;-78
2022/11/04 03:54:49;;;;;;;2.92;0.90;;;;;;;11.16;70.56;98997.31;1088038;54;20026;-79
2022/11/04 03:56:19;;;;;;;4.82;1.00;;;;;;;11.33;69.89;98990.06;1087938;54;20046;-79
2022/11/04 03:57:36;;;;;;;3.63;0.80;;;;;;;11.08;70.76;98989.34;1087940;54;20030;-79
2022/11/04 03:58:46;;;;;;;3.83;1.08;;;;;;;11.18;70.47;98992.63;1088359;39;20621;-80
2022/11/04 04:00:12;;;;;;;5.00;1.15;;;;;;;11.27;69.83;99001.44;1088630;46;20025;-79
2022/11/04 04:01:27;;;;;;;3.78;1.05;;;;;;;11.15;70.32;99001.00;1087620;54;20034;-79
2022/11/04 04:02:39;;;;;;;4.15;1.00;;;;;;;11.16;70.62;99007.16;1087594;54;20031;-80
2022/11/04 04:03:49;;;;;;;2.40;0.85;;;;;;;11.12;70.51;99004.00;1087616;54;20058;-79
2022/11/04 04:05:00;;;;;;;3.30;0.90;;;;;;;11.28;70.01;99010.31;1092031;39;20647;-79
2022/11/04 04:06:05;;;;;;;;;;;;;;;11.28;70.17;99013.00;1087723;54;21165;-79
2022/11/04 04:07:16;;;;;;;2.85;0.90;;;;;;;11.28;70.14;99011.13;1087660;54;19931;-79
2022/11/04 04:08:29;;;;;;;3.55;1.10;;;;;;;11.21;70.36;99010.19;1087563;54;20061;-79
2022/11/04 04:09:38;;;;;;;4.78;1.00;;;;;;;11.11;70.46;99020.25;1087653;54;20035;-79
2022/11/04 04:10:47;;;;;;;4.40;1.05;;;;;;;11.00;71.04;99014.25;1087676;54;20054;-79
2022/11/04 04:11:57;;;;;;;2.85;1.35;;;;;;;11.01;71.14;99021.28;1087668;54;20042;-79
2022/11/04 04:13:04;;;;;;;4.65;1.08;;;;;;;11.20;70.55;99020.03;1087545;54;20038;-78
2022/11/04 04:14:37;;;;;;;4.47;1.15;;;;;;;10.98;71.06;99016.28;1087724;54;20027;-77
2022/11/04 04:15:46;;;;;;;6.35;1.05;;;;;;;11.12;70.69;99014.72;1087703;54;20034;-79
2022/11/04 04:16:54;;;;;;;2.85;0.90;;;;;;;11.22;70.25;99010.00;1089883;39;20746;-82
2022/11/04 04:18:02;;;;;;;4.78;1.08;;;;;;;11.27;70.16;99009.47;1087886;46;20050;-79
2022/11/04 04:19:13;;;;;;;3.22;0.93;;;;;;;11.31;69.75;99004.59;1092143;39;20724;-82
2022/11/04 04:20:18;;;;;;;10.02;2.28;;;;;;;11.20;70.11;99011.19;1087639;54;20034;-82
2022/11/04 04:21:29;;;;;;;3.35;1.10;;;;;;;11.22;70.33;99003.81;1087663;54;20038;-79
2022/11/04 04:22:36;;;;;;;3.53;1.10;;;;;;;11.30;69.89;99002.94;1087662;54;20766;-79
2022/11/04 04:27:38;;;;;;;5.30;1.20;;;;;;;11.12;70.89;98995.16;1087561;54;20071;-79
2022/11/04 04:28:42;;;;;;;5.00;1.20;;;;;;;10.97;71.27;98987.03;1087562;54;20061;-79
2022/11/04 04:29:48;;;;;;;4.38;0.90;;;;;;;10.84;71.79;98987.59;1087633;54;20071;-80
2022/11/04 04:30:50;;;;;;;4.13;1.27;;;;;;;10.81;72.20;98993.28;1087650;54;20042;-79
2022/11/04 04:31:56;;;;;;;3.60;0.90;;;;;;;10.78;72.10;98989.13;1087626;54;20078;-79
2022/11/04 04:33:02;;;;;;;3.90;1.20;;;;;;;10.79;72.50;99001.47;1087755;54;20040;-79
2022/11/04 04:34:09;;;;;;;4.43;1.15;;;;;;;10.86;71.88;98991.75;1087826;54;20030;-79
2022/11/04 04:36:33;;;;;;;4.50;1.10;;;;;;;10.95;71.82;98992.56;1088888;39;20657;-80
2022/11/04 04:37:34;;;;;;;4.60;1.30;;;;;;;11.04;71.46;98994.22;1087912;54;20050;-79
2022/11/04 04:45:14;;;;;;;6.38;1.45;;;;;;;10.83;72.32;99001.97;1087949;54;20035;-79
2022/11/04 04:46:16;;;;;;;3.92;1.30;;;;;;;10.84;72.37;99000.97;1087864;54;20042;-79
2022/11/04 04:47:23;;;;;;;3.60;0.93;;;;;;;10.84;72.12;98996.44;1087927;54;20058;-81
2022/11/04 04:48:27;;;;;;;3.97;1.00;;;;;;;10.81;72.22;98987.94;1087875;54;20053;-79
2022/11/04 04:49:34;;;;;;;5.35;1.10;;;;;;;10.89;72.06;98990.56;1087889;54;20053;-79
2022/11/04 04:50:41;;;;;;;3.28;1.10;;;;;;;10.83;72.29;98992.09;1087921;54;20385;-80
2022/11/04 04:51:46;;;;;;;5.25;1.50;;;;;;;10.83;72.47;98994.75;1087937;54;20035;-79
2022/11/04 04:52:54;;;;;;;5.55;1.10;;;;;;;10.78;72.13;98989.13;1087975;54;20042;-79
2022/11/04 04:53:55;;;;;;;4.32;1.13;;;;;;;10.78;72.27;98994.47;1087850;54;20035;-80
2022/11/04 04:55:00;;;;;;;3.85;1.30;;;;;;;10.88;72.32;98996.91;1088378;46;20037;-79
2022/11/04 04:56:01;;;;;;;6.90;1.35;;;;;;;10.86;72.27;98997.09;1087907;54;20030;-80
2022/11/04 04:57:05;;;;;;;2.97;0.95;;;;;;;10.86;72.14;98991.75;1087265;54;20033;-78
2022/11/04 04:58:07;;;;;;;4.80;1.17;;;;;;;10.97;71.81;99000.41;1087839;54;20038;-79
2022/11/04 04:59:11;;;;;;;2.88;0.82;;;;;;;11.12;71.29;98995.16;1087897;54;20036;-78
2022/11/04 05:00:15;;;;;;;3.38;1.42;;;;;;;11.14;71.03;98993.16;1087875;54;20046;-79
2022/11/04 05:01:19;;;;;;;3.90;1.17;;;;;;;11.18;71.16;98999.81;1087971;54;20029;-79
2022/11/04 05:02:21;;;;;;;3.22;0.90;;;;;;;11.16;71.30;98991.13;1087948;54;20022;-79
2022/11/04 05:03:26;;;;;;;4.45;1.00;;;;;;;11.19;70.85;98996.13;1087952;54;20094;-79
2022/11/04 05:04:27;;;;;;;3.55;1.00;;;;;;;11.12;71.32;99000.53;1087905;54;20038;-79
2022/11/04 05:05:34;;;;;;;4.93;1.05;;;;;;;11.05;71.45;98995.84;1088280;46;20034;-79
2022/11/04 05:06:35;;;;;;;6.15;1.35;;;;;;;10.98;71.78;99000.22;1087884;54;20046;-80
2022/11/04 05:07:39;;;;;;;4.80;1.20;;;;;;;11.04;71.39;99004.91;1087899;54;20035;-79
2022/11/04 05:08:41;;;;;;;2.55;0.88;;;;;;;11.18;70.92;98998.00;1087872;54;20038;-78
2022/11/04 05:09:45;;;;;;;3.58;1.08;;;;;;;11.18;70.97;98999.81;1087961;54;20058;-79
2022/11/04 05:10:46;;;;;;;3.55;1.10;;;;;;;11.21;71.04;98991.44;1087878;54;20038;-81
2022/11/04 05:11:51;;;;;;;3.50;1.27;;;;;;;11.28;70.53;98995.09;1088250;46;20048;-78
2022/11/04 05:14:11;;;;;;;4.28;1.30;;;;;;;11.31;70.55;98984.03;1087863;54;20062;-79
2022/11/04 05:15:13;;;;;;;4.13;1.10;;;;;;;11.37;70.33;98961.91;1089150;46;20058;-79
2022/11/04 05:16:17;;;;;;;3.55;1.40;;;;;;;11.35;70.42;98958.59;1087773;54;20026;-82
2022/11/04 05:17:18;;;;;;;3.55;1.25;;;;;;;11.35;70.55;98934.50;1091447;46;20034;-79
2022/11/04 05:18:22;;;;;;;5.07;1.20;;;;;;;11.33;70.40;98944.56;1088166;46;20030;-79
2022/11/04 05:19:24;;;;;;;3.08;1.30;;;;;;;11.37;70.39;98945.88;1088052;54;20039;-82
2022/11/04 05:20:31;;;;;;;3.58;1.20;;;;;;;11.33;70.48;98939.22;1088086;54;20069;-80
2022/11/04 05:21:35;;;;;;;4.30;1.35;;;;;;;11.24;71.07;98945.63;1087973;54;20030;-81
2022/11/04 05:22:40;;;;;;;4.72;1.35;;;;;;;11.18;70.87;98944.50;1089741;46;20034;-78
2022/11/04 05:23:41;;;;;;;3.53;1.50;;;;;;;11.22;70.88;98936.94;1088072;54;20026;-81
2022/11/04 05:24:45;;;;;;;4.25;1.58;;;;;;;11.18;71.00;98935.63;1087869;54;20045;-81
2022/11/04 05:25:47;;;;;;;6.05;1.60;;;;;;;11.07;71.32;98929.66;1087912;54;20062;-82
2022/11/04 05:26:51;;;;;;;4.40;1.80;;;;;;;11.05;71.49;98920.97;1087856;54;20026;-83
2022/11/04 05:27:53;;;;;;;4.13;1.33;;;;;;;10.98;71.80;98917.31;1087751;54;20057;-80
2022/11/04 05:28:57;;;;;;;4.63;1.30;;;;;;;10.96;71.49;98916.66;1087858;54;20034;-82
2022/11/04 05:29:58;;;;;;;3.78;1.20;;;;;;;10.91;71.52;98911.03;1087810;54;20062;-80
2022/11/04 05:31:05;;;;;;;3.92;1.45;;;;;;;10.90;71.78;98925.41;1087929;54;20019;-81
2022/11/04 05:32:07;;;;;;;3.97;1.25;;;;;;;10.85;71.93;98919.75;1087759;54;20046;-80
2022/11/04 05:33:11;;;;;;;4.22;1.10;;;;;;;10.82;71.95;98928.94;1088180;46;20031;-80
2022/11/04 05:34:16;;;;;;;5.22;1.70;;;;;;;10.79;72.05;98921.28;1088012;54;20022;-79
2022/11/04 05:35:17;;;;;;;7.88;1.60;;;;;;;10.79;72.35;98925.78;1090492;46;20042;-81
2022/11/04 05:36:21;;;;;;;3.88;1.13;;;;;;;10.85;72.06;98927.78;1088071;54;20034;-81
2022/11/04 05:37:25;;;;;;;4.30;1.25;;;;;;;10.87;72.01;98913.22;1088095;54;20057;-82
2022/11/04 05:38:29;;;;;;;5.25;1.20;;;;;;;10.99;71.57;98912.84;1090718;46;20037;-80
2022/11/04 05:39:31;;;;;;;4.30;1.20;;;;;;;11.10;71.47;98917.75;1088070;54;20031;-81
2022/11/04 05:40:35;;;;;;;3.78;1.10;;;;;;;11.16;71.14;98921.56;1088389;47;20007;-80
2022/11/04 05:41:36;;;;;;;2.65;0.90;;;;;;;11.16;71.23;98927.78;1088054;54;20023;-80
2022/11/04 05:42:41;;;;;;;3.95;1.00;;;;;;;11.13;71.37;98932.66;1087992;54;20074;-79
2022/11/04 05:43:42;;;;;;;6.15;1.52;;;;;;;11.12;71.21;98939.00;1087971;54;20074;-80
2022/11/04 05:44:46;;;;;;;4.72;1.50;;;;;;;11.20;71.20;98945.13;1087879;54;20030;-79
2022/11/04 05:45:48;;;;;;;4.55;1.45;;;;;;;11.22;70.89;98948.47;1087846;54;20027;-79
2022/11/04 05:46:52;;;;;;;4.05;1.23;;;;;;;11.28;70.85;98952.28;1087889;54;20030;-80
2022/11/04 05:47:57;;;;;;;3.38;1.20;;;;;;;11.34;70.84;98950.75;1087722;54;21009;-79
2022/11/04 05:49:01;;;;;;;4.47;1.40;;;;;;;11.35;70.66;98949.75;1087890;54;20106;-81